Cape Point, South Africa
Current Conditions -  °F | °C
As of 1:00 AM on Thursday 27 Nov 2014 (Local Time) from FACT Reporting Station
Broken Clouds Broken Clouds  
Wind Chill: 63°   Ceiling: 1100
Heat Index: 63°   Visibility: 5mi
Dew Point: 59°   Wind: 14mph
Humidity: 88%   Direction: 300°WNW
Pressure: 29.83"   Gusts: NA
Location:  34.35°S, 18.5°E
Report Text: FACT 262300Z 30012KT 8000 SCT003 BKN011 17/15 Q1010 NOSIG
Loading
Personal Weather Stations






























Interactive Weather Map New forecast layout! Learn more

10-Day Weather Forecast

Advertisements
Track Severe Weather on mobile